TimeCST,TemperatureF,Dew PointF,Humidity,Sea Level PressureIn,VisibilityMPH,Wind Direction,Wind SpeedMPH,Gust SpeedMPH,PrecipitationIn,Events,Conditions,WindDirDegrees,DateUTC
12:53 AM,37.0,24.1,59,29.73,10.0,West,24.2,35.7,N/A,,Mostly Cloudy,260,2011-11-07 06:53:00
1:53 AM,35.1,24.1,64,29.77,10.0,West,24.2,29.9,N/A,,Overcast,270,2011-11-07 07:53:00
2:53 AM,34.0,25.0,70,29.81,10.0,West,17.3,28.8,N/A,,Mostly Cloudy,270,2011-11-07 08:53:00
3:53 AM,34.0,26.1,73,29.84,10.0,West,16.1,25.3,N/A,,Mostly Cloudy,280,2011-11-07 09:53:00
4:46 AM,33.8,26.6,75,29.85,10.0,West,16.1,-,N/A,,Overcast,280,2011-11-07 10:46:00
4:53 AM,34.0,27.0,75,29.88,10.0,West,16.1,-,N/A,,Overcast,280,2011-11-07 10:53:00
5:20 AM,33.8,26.6,75,29.87,10.0,West,16.1,-,N/A,,Overcast,280,2011-11-07 11:20:00
5:53 AM,34.0,27.0,75,29.94,10.0,West,13.8,-,N/A,,Mostly Cloudy,260,2011-11-07 11:53:00
6:28 AM,35.6,26.6,70,29.92,10.0,West,16.1,23.0,N/A,,Overcast,270,2011-11-07 12:28:00
6:53 AM,35.6,26.6,70,29.93,10.0,West,18.4,25.3,N/A,,Overcast,280,2011-11-07 12:53:00
7:53 AM,35.1,25.0,67,29.99,10.0,West,16.1,26.5,N/A,,Mostly Cloudy,280,2011-11-07 13:53:00
8:31 AM,33.8,26.6,75,29.98,10.0,West,10.4,-,N/A,,Scattered Clouds,280,2011-11-07 14:31:00
8:53 AM,35.6,26.6,70,29.98,10.0,West,12.7,-,N/A,,Partly Cloudy,270,2011-11-07 14:53:00
9:53 AM,37.9,26.1,62,30.05,10.0,WNW,19.6,24.2,N/A,,Scattered Clouds,290,2011-11-07 15:53:00
10:53 AM,39.0,25.0,57,30.08,10.0,West,16.1,-,N/A,,Scattered Clouds,270,2011-11-07 16:53:00
11:53 AM,41.0,26.1,55,30.09,10.0,West,13.8,-,N/A,,Scattered Clouds,270,2011-11-07 17:53:00
12:53 PM,43.0,23.0,45,30.10,10.0,West,18.4,24.2,N/A,,Partly Cloudy,280,2011-11-07 18:53:00
1:53 PM,44.1,21.9,42,30.10,10.0,West,18.4,-,N/A,,Partly Cloudy,270,2011-11-07 19:53:00
2:53 PM,43.0,23.0,45,30.11,10.0,West,17.3,-,N/A,,Partly Cloudy,270,2011-11-07 20:53:00
3:53 PM,43.0,23.0,45,30.13,10.0,West,10.4,-,N/A,,Partly Cloudy,280,2011-11-07 21:53:00
4:53 PM,39.2,23.0,52,30.11,10.0,WNW,6.9,-,N/A,,Clear,300,2011-11-07 22:53:00
5:53 PM,34.0,21.0,59,30.17,10.0,Calm,Calm,-,N/A,,Clear,0,2011-11-07 23:53:00
6:53 PM,26.1,19.9,78,30.19,8.0,SSW,5.8,-,N/A,,Clear,200,2011-11-08 00:53:00
7:53 PM,26.6,19.4,74,30.16,10.0,SW,5.8,-,N/A,,Clear,230,2011-11-08 01:53:00
8:53 PM,24.1,19.0,81,30.21,10.0,SW,4.6,-,N/A,,Clear,220,2011-11-08 02:53:00
9:53 PM,23.0,18.0,81,30.19,10.0,SW,3.5,-,N/A,,Clear,230,2011-11-08 03:53:00
10:53 PM,21.9,17.1,82,30.19,10.0,Calm,Calm,-,N/A,,Clear,0,2011-11-08 04:53:00
11:53 PM,21.0,16.0,81,30.18,10.0,Calm,Calm,-,N/A,,Clear,0,2011-11-08 05:53:00